Time;durP1;ratioP1;P1;durP2;ratioP2;P2;SDS_P1;SDS_P2;PMS_P1;PMS_P2;Temp;Humidity;BMP_temperature;BMP_pressure;BME280_temperature;BME280_humidity;BME280_pressure;Samples;Min_cycle;Max_cycle;Signal;HPM_P1;HPM_P2
2023/12/14 00:00:23;;;;;;;40.63;24.58;;;9.20;99.90;;;;;;5038210;28;20030;-57
2023/12/14 00:02:49;;;;;;;33.88;19.65;;;9.10;99.90;;;;;;5038812;28;20030;-57
2023/12/14 00:05:15;;;;;;;31.98;19.15;;;9.10;99.90;;;;;;5039016;28;20060;-57
2023/12/14 00:07:41;;;;;;;29.33;15.90;;;9.10;99.90;;;;;;5039105;28;20100;-57
2023/12/14 00:10:07;;;;;;;25.25;14.68;;;9.10;99.90;;;;;;5038451;28;20553;-57
2023/12/14 00:12:33;;;;;;;28.40;19.10;;;9.10;99.90;;;;;;5038941;28;20026;-57
2023/12/14 00:14:59;;;;;;;33.25;22.45;;;9.10;99.90;;;;;;5038755;28;20029;-57
2023/12/14 00:17:25;;;;;;;32.95;20.73;;;9.10;99.90;;;;;;5038609;28;20511;-57
2023/12/14 00:19:51;;;;;;;28.20;17.05;;;9.10;99.90;;;;;;5038681;28;20025;-57
2023/12/14 00:22:17;;;;;;;29.00;17.98;;;9.20;99.90;;;;;;5038529;28;20037;-57
2023/12/14 00:24:43;;;;;;;28.77;16.67;;;9.10;99.90;;;;;;5038742;28;20017;-57
2023/12/14 00:27:08;;;;;;;26.15;16.65;;;9.10;99.90;;;;;;5038526;28;20476;-57
2023/12/14 00:29:34;;;;;;;27.38;16.23;;;9.10;99.90;;;;;;5038417;28;20380;-57
2023/12/14 00:32:00;;;;;;;30.17;17.00;;;9.10;99.90;;;;;;5038359;28;20029;-57
2023/12/14 00:34:26;;;;;;;19.42;13.07;;;9.10;99.90;;;;;;5038733;28;20133;-57
2023/12/14 00:36:52;;;;;;;24.88;15.73;;;9.10;99.90;;;;;;5038335;28;20033;-57
2023/12/14 00:39:18;;;;;;;33.22;21.10;;;9.20;99.90;;;;;;5038450;28;20492;-57
2023/12/14 00:41:44;;;;;;;29.13;19.65;;;9.10;99.90;;;;;;5038294;28;20049;-57
2023/12/14 00:44:10;;;;;;;38.13;22.08;;;9.10;99.90;;;;;;5038300;28;20072;-57
2023/12/14 00:46:36;;;;;;;51.38;29.75;;;9.10;99.90;;;;;;5037973;28;20034;-57
2023/12/14 00:49:02;;;;;;;56.25;30.45;;;9.10;99.90;;;;;;5038280;28;20026;-57
2023/12/14 00:51:28;;;;;;;42.97;27.38;;;9.10;99.90;;;;;;5038120;28;20053;-57
2023/12/14 00:53:54;;;;;;;69.15;33.30;;;9.20;99.90;;;;;;5037951;28;20031;-57
2023/12/14 00:56:20;;;;;;;57.58;32.22;;;9.10;99.90;;;;;;5038029;28;20029;-57
2023/12/14 00:58:45;;;;;;;62.42;32.05;;;9.20;99.90;;;;;;5038029;28;20032;-57
2023/12/14 01:01:11;;;;;;;60.42;30.45;;;9.10;99.90;;;;;;5037765;28;20034;-57
2023/12/14 01:03:37;;;;;;;59.05;31.70;;;9.20;99.90;;;;;;5037907;28;20507;-57
2023/12/14 01:06:03;;;;;;;57.10;30.90;;;9.10;99.90;;;;;;5037934;28;20563;-57
2023/12/14 01:08:29;;;;;;;62.83;31.83;;;9.20;99.90;;;;;;5037609;28;20357;-57
2023/12/14 01:10:55;;;;;;;60.85;30.08;;;9.20;99.90;;;;;;5037331;28;20104;-56
2023/12/14 01:13:21;;;;;;;46.22;22.25;;;9.20;99.90;;;;;;5037670;28;20036;-57
2023/12/14 01:15:47;;;;;;;32.38;17.58;;;9.10;99.90;;;;;;5037602;28;20100;-57
2023/12/14 01:18:13;;;;;;;36.83;19.02;;;9.20;99.90;;;;;;5037611;28;20032;-57
2023/12/14 01:20:39;;;;;;;33.65;18.00;;;9.10;99.90;;;;;;5037442;28;20080;-57
2023/12/14 01:23:05;;;;;;;29.92;16.85;;;9.10;99.90;;;;;;5037381;28;20029;-57
2023/12/14 01:25:31;;;;;;;26.88;15.68;;;9.10;99.90;;;;;;5037447;28;20040;-57
2023/12/14 01:27:56;;;;;;;29.55;15.43;;;9.00;99.90;;;;;;5037421;28;20494;-57
2023/12/14 01:30:23;;;;;;;24.25;13.73;;;9.00;99.90;;;;;;5037072;28;20491;-57
2023/12/14 01:32:49;;;;;;;28.77;15.13;;;9.10;99.90;;;;;;5037451;28;20025;-57
2023/12/14 01:35:15;;;;;;;26.33;13.52;;;9.10;99.90;;;;;;5037452;28;20030;-57
2023/12/14 01:37:41;;;;;;;30.50;14.95;;;9.00;99.90;;;;;;5037089;28;20113;-57
2023/12/14 01:40:07;;;;;;;33.78;15.93;;;9.10;99.90;;;;;;5037136;28;20049;-57
2023/12/14 01:42:33;;;;;;;31.77;17.60;;;9.00;99.90;;;;;;5037179;28;20113;-57
2023/12/14 01:44:59;;;;;;;32.85;16.02;;;9.10;99.90;;;;;;5037354;28;20053;-57
2023/12/14 01:47:25;;;;;;;32.05;16.40;;;8.90;99.90;;;;;;5036883;28;20091;-57
2023/12/14 01:49:51;;;;;;;34.10;16.17;;;8.90;99.90;;;;;;5037094;28;20116;-57
2023/12/14 01:52:17;;;;;;;35.95;16.88;;;9.00;99.90;;;;;;5037011;28;20021;-57
2023/12/14 01:54:43;;;;;;;35.00;16.65;;;9.00;99.90;;;;;;5036950;28;20505;-57
2023/12/14 01:57:09;;;;;;;31.58;16.40;;;9.00;99.90;;;;;;5036774;28;20049;-57
2023/12/14 01:59:35;;;;;;;30.63;15.90;;;8.90;99.90;;;;;;5036891;28;20120;-57
2023/12/14 02:02:02;;;;;;;24.30;11.85;;;8.90;99.90;;;;;;5036544;28;20029;-57
2023/12/14 02:04:28;;;;;;;22.42;10.55;;;8.90;99.90;;;;;;5036796;28;20018;-57
2023/12/14 02:06:54;;;;;;;22.70;11.50;;;8.90;99.90;;;;;;5035613;28;20506;-57
2023/12/14 02:09:20;;;;;;;24.27;11.27;;;8.80;99.90;;;;;;5036476;28;20502;-57
2023/12/14 02:11:46;;;;;;;27.50;13.23;;;8.90;99.90;;;;;;5036597;28;20033;-57
2023/12/14 02:14:12;;;;;;;29.17;13.00;;;9.00;99.90;;;;;;5036572;28;20390;-57
2023/12/14 02:16:38;;;;;;;27.42;12.60;;;8.90;99.90;;;;;;5036345;28;20041;-57
2023/12/14 02:19:05;;;;;;;20.98;11.43;;;8.90;99.90;;;;;;5036586;28;20030;-57
2023/12/14 02:21:31;;;;;;;17.48;9.02;;;8.80;99.90;;;;;;5035629;28;20415;-57
2023/12/14 02:23:57;;;;;;;15.27;8.05;;;8.90;99.90;;;;;;5035986;28;20041;-57
2023/12/14 02:26:23;;;;;;;18.08;8.88;;;8.90;99.90;;;;;;5036183;28;20037;-57
2023/12/14 02:28:49;;;;;;;16.70;7.80;;;8.90;99.90;;;;;;5036250;28;20391;-57
2023/12/14 02:31:15;;;;;;;35.70;15.20;;;8.90;99.90;;;;;;5036099;28;20028;-57
2023/12/14 02:33:42;;;;;;;53.25;18.55;;;9.00;99.90;;;;;;5036160;28;20132;-57
2023/12/14 02:36:08;;;;;;;70.95;24.48;;;9.00;99.90;;;;;;5036075;28;20063;-57
2023/12/14 02:38:34;;;;;;;60.53;22.10;;;9.00;99.90;;;;;;5035947;28;20476;-57
2023/12/14 02:41:00;;;;;;;43.42;15.77;;;8.90;99.90;;;;;;5035870;28;20096;-57
2023/12/14 02:43:26;;;;;;;21.30;10.27;;;8.90;99.90;;;;;;5036015;28;20053;-57
2023/12/14 02:45:52;;;;;;;20.23;9.18;;;8.90;99.90;;;;;;5035826;28;20360;-57
2023/12/14 02:48:18;;;;;;;36.10;13.75;;;8.90;99.90;;;;;;5033513;28;20059;-57
2023/12/14 02:50:44;;;;;;;48.78;20.60;;;9.00;99.90;;;;;;5035687;28;20029;-57
2023/12/14 02:53:09;;;;;;;75.70;29.17;;;9.00;99.90;;;;;;5035819;28;20030;-57
2023/12/14 02:55:35;;;;;;;75.95;29.58;;;8.90;99.90;;;;;;5036022;28;20051;-57
2023/12/14 02:58:02;;;;;;;69.78;28.17;;;8.80;99.90;;;;;;5035730;28;20033;-57
2023/12/14 03:00:28;;;;;;;84.30;32.05;;;8.80;99.90;;;;;;5035492;28;20049;-57
2023/12/14 03:02:54;;;;;;;73.05;28.67;;;8.80;99.90;;;;;;5035651;28;20053;-57
2023/12/14 03:05:20;;;;;;;63.95;26.13;;;8.90;99.90;;;;;;5035724;28;20071;-57
2023/12/14 03:07:46;;;;;;;29.73;14.35;;;8.90;99.90;;;;;;5035592;28;20033;-57
2023/12/14 03:10:12;;;;;;;33.35;16.38;;;8.90;99.90;;;;;;5035512;28;20021;-57
2023/12/14 03:12:38;;;;;;;35.20;16.98;;;8.90;99.90;;;;;;5035614;28;20072;-57
2023/12/14 03:15:04;;;;;;;31.85;16.05;;;8.80;99.90;;;;;;5035473;28;20480;-57
2023/12/14 03:17:30;;;;;;;31.10;15.32;;;8.90;99.90;;;;;;5035381;28;20361;-58
2023/12/14 03:19:56;;;;;;;33.15;15.93;;;8.80;99.90;;;;;;5035528;28;20025;-57
2023/12/14 03:22:22;;;;;;;31.77;14.15;;;8.80;99.90;;;;;;5035121;28;20030;-57
2023/12/14 03:24:48;;;;;;;27.30;13.82;;;8.80;99.90;;;;;;5035376;28;20357;-57
2023/12/14 03:27:14;;;;;;;53.08;23.42;;;8.70;99.90;;;;;;5035535;28;20030;-57
2023/12/14 03:29:40;;;;;;;32.03;17.48;;;8.80;99.90;;;;;;5035012;28;20029;-57
2023/12/14 03:32:06;;;;;;;26.85;13.95;;;8.80;99.90;;;;;;5035528;28;20365;-57
2023/12/14 03:34:32;;;;;;;23.88;12.43;;;8.80;99.90;;;;;;5035242;28;20472;-57
2023/12/14 03:36:58;;;;;;;21.23;11.90;;;8.90;99.90;;;;;;5034862;28;20088;-57
2023/12/14 03:39:24;;;;;;;43.15;20.23;;;8.90;99.90;;;;;;5035356;28;20550;-57
2023/12/14 03:41:50;;;;;;;58.58;25.27;;;9.00;99.90;;;;;;5035210;28;20475;-57
2023/12/14 03:44:16;;;;;;;49.63;22.75;;;9.00;99.90;;;;;;5034917;28;20038;-57
2023/12/14 03:46:42;;;;;;;80.85;37.00;;;8.90;99.90;;;;;;5035308;28;20052;-58
2023/12/14 03:49:08;;;;;;;56.22;33.45;;;8.90;99.90;;;;;;5035042;28;20029;-57
2023/12/14 03:51:34;;;;;;;56.30;29.65;;;8.90;99.90;;;;;;5034837;28;20464;-57
2023/12/14 03:54:00;;;;;;;61.63;31.75;;;8.90;99.90;;;;;;5035256;28;20089;-57
2023/12/14 03:56:26;;;;;;;55.78;27.95;;;8.90;99.90;;;;;;5034946;28;20550;-57
2023/12/14 03:58:52;;;;;;;31.52;16.75;;;8.80;99.90;;;;;;5034912;28;20044;-57
2023/12/14 04:01:19;;;;;;;19.48;9.40;;;8.80;99.90;;;;;;5035083;28;20065;-57
2023/12/14 04:03:45;;;;;;;19.17;9.20;;;8.80;99.90;;;;;;5035195;28;20079;-57
2023/12/14 04:06:14;;;;;;;19.25;9.57;;;8.80;99.90;;;;;;5034717;28;20476;-57
2023/12/14 04:08:43;;;;;;;15.68;8.25;;;8.80;99.90;;;;;;5035215;28;20087;-57
2023/12/14 04:11:09;;;;;;;11.90;6.38;;;8.80;99.90;;;;;;5034911;28;20041;-57
2023/12/14 04:13:34;;;;;;;18.58;9.63;;;8.80;99.90;;;;;;5034883;28;20025;-57
2023/12/14 04:16:00;;;;;;;14.60;7.82;;;8.80;99.90;;;;;;5034982;28;20029;-57
2023/12/14 04:18:27;;;;;;;28.25;11.95;;;8.80;99.90;;;;;;5034927;28;20030;-57
2023/12/14 04:20:52;;;;;;;20.00;9.70;;;8.90;99.90;;;;;;5034481;28;20076;-57
2023/12/14 04:23:18;;;;;;;22.73;11.45;;;8.90;99.90;;;;;;5034994;28;20041;-57
2023/12/14 04:25:44;;;;;;;30.00;14.40;;;8.90;99.90;;;;;;5034762;28;20029;-57
2023/12/14 04:28:10;;;;;;;35.10;18.42;;;8.90;99.90;;;;;;5034622;28;20036;-57
2023/12/14 04:30:36;;;;;;;31.80;15.98;;;8.80;99.90;;;;;;5034870;28;20024;-57
2023/12/14 04:33:02;;;;;;;28.95;15.38;;;8.70;99.90;;;;;;5034864;28;20025;-57
2023/12/14 04:35:28;;;;;;;35.47;16.50;;;8.70;99.90;;;;;;5034465;28;20480;-57
2023/12/14 04:37:54;;;;;;;20.55;12.20;;;8.70;99.90;;;;;;5034690;28;20133;-57
2023/12/14 04:40:20;;;;;;;22.70;12.95;;;8.70;99.90;;;;;;5034753;28;20022;-57
2023/12/14 04:42:45;;;;;;;27.02;13.93;;;8.70;99.90;;;;;;5034477;28;20361;-58
2023/12/14 04:45:12;;;;;;;32.17;16.27;;;8.70;99.90;;;;;;5035788;28;20036;-57
2023/12/14 04:47:38;;;;;;;21.13;11.38;;;8.60;99.90;;;;;;5038040;28;20044;-57
2023/12/14 04:50:05;;;;;;;25.40;14.50;;;8.60;99.90;;;;;;5037792;28;20404;-58
2023/12/14 04:52:31;;;;;;;44.75;23.65;;;8.60;99.90;;;;;;5038227;28;20033;-57
2023/12/14 04:54:56;;;;;;;52.85;28.65;;;8.60;99.90;;;;;;5038099;28;20021;-58
2023/12/14 04:57:22;;;;;;;35.33;21.00;;;8.60;99.90;;;;;;5038096;28;20025;-57
2023/12/14 04:59:48;;;;;;;30.20;17.40;;;8.50;99.90;;;;;;5037827;28;20089;-57
2023/12/14 05:02:14;;;;;;;44.13;24.27;;;8.50;99.90;;;;;;5037921;28;20429;-57
2023/12/14 05:04:40;;;;;;;40.33;24.40;;;8.50;99.90;;;;;;5037612;28;20095;-58
2023/12/14 05:07:06;;;;;;;30.15;19.73;;;8.60;99.90;;;;;;5037679;28;20033;-57
2023/12/14 05:09:31;;;;;;;28.23;16.77;;;8.60;99.90;;;;;;5037768;28;20075;-57
2023/12/14 05:11:58;;;;;;;25.08;15.88;;;8.60;99.90;;;;;;5037809;28;20034;-57
2023/12/14 05:14:24;;;;;;;27.92;19.10;;;8.60;99.90;;;;;;5037727;28;20033;-57
2023/12/14 05:16:50;;;;;;;20.90;11.93;;;8.60;99.90;;;;;;5037651;28;20029;-57
2023/12/14 05:19:16;;;;;;;32.30;21.35;;;8.60;99.90;;;;;;5037515;28;20056;-57
2023/12/14 05:21:42;;;;;;;40.83;27.02;;;8.60;99.90;;;;;;5037351;28;20042;-57
2023/12/14 05:24:07;;;;;;;41.00;22.40;;;8.60;99.90;;;;;;5037568;28;20105;-57
2023/12/14 05:26:33;;;;;;;22.42;13.63;;;8.60;99.90;;;;;;5037419;28;20550;-57
2023/12/14 05:28:59;;;;;;;27.13;14.90;;;8.50;99.90;;;;;;5037177;28;20021;-57
2023/12/14 05:31:25;;;;;;;35.05;24.90;;;8.50;99.90;;;;;;5037464;28;20092;-57
2023/12/14 05:33:51;;;;;;;42.13;29.20;;;8.50;99.90;;;;;;5037344;28;20129;-57
2023/12/14 05:36:17;;;;;;;36.88;22.30;;;8.40;99.90;;;;;;5036953;28;20450;-58
2023/12/14 05:38:43;;;;;;;35.83;23.98;;;8.40;99.90;;;;;;5037286;28;20116;-57
2023/12/14 05:41:10;;;;;;;38.78;24.00;;;8.50;99.90;;;;;;5037162;28;20061;-57
2023/12/14 05:43:36;;;;;;;44.28;25.60;;;8.50;99.90;;;;;;5036982;28;20496;-57
2023/12/14 05:46:03;;;;;;;217.55;111.53;;;8.50;99.90;;;;;;5037477;28;20040;-57
2023/12/14 05:48:29;;;;;;;143.25;72.65;;;8.40;99.90;;;;;;5037046;28;20025;-57
2023/12/14 05:50:56;;;;;;;54.92;30.98;;;8.30;99.90;;;;;;5036828;28;20061;-57
2023/12/14 05:53:22;;;;;;;35.10;21.23;;;8.30;99.90;;;;;;5037074;28;20026;-58
2023/12/14 05:55:48;;;;;;;27.77;17.23;;;8.30;99.90;;;;;;5036845;28;20085;-57
2023/12/14 05:58:14;;;;;;;22.70;15.07;;;8.30;99.90;;;;;;5034759;28;20029;-57
2023/12/14 06:00:40;;;;;;;28.92;18.20;;;8.20;99.90;;;;;;5036922;28;20038;-57
2023/12/14 06:03:06;;;;;;;18.40;11.48;;;8.20;99.90;;;;;;5036778;28;20087;-57
2023/12/14 06:05:32;;;;;;;34.10;19.23;;;8.20;99.90;;;;;;5036779;28;20033;-57
2023/12/14 06:07:58;;;;;;;58.70;23.80;;;8.20;99.90;;;;;;5036666;28;20037;-57
2023/12/14 06:10:24;;;;;;;32.55;14.43;;;8.20;99.90;;;;;;5036609;28;20029;-58
2023/12/14 06:12:50;;;;;;;41.80;17.92;;;8.30;99.90;;;;;;5036398;28;20154;-57
2023/12/14 06:15:16;;;;;;;31.27;14.70;;;8.30;99.90;;;;;;5034527;28;20032;-57
2023/12/14 06:17:42;;;;;;;29.67;16.38;;;8.30;99.90;;;;;;5036667;28;20044;-57
2023/12/14 06:20:09;;;;;;;33.15;18.67;;;8.20;99.90;;;;;;5036582;28;20052;-57
2023/12/14 06:22:37;;;;;;;19.67;11.52;;;8.30;99.90;;;;;;5036485;28;20056;-57
2023/12/14 06:25:04;;;;;;;35.53;21.13;;;8.20;99.90;;;;;;5034980;28;20025;-57
2023/12/14 06:27:30;;;;;;;42.92;23.80;;;8.20;99.90;;;;;;5034681;28;20017;-58
2023/12/14 06:29:56;;;;;;;32.63;18.85;;;8.10;99.90;;;;;;5049131;28;20079;-57
2023/12/14 06:32:22;;;;;;;31.60;20.80;;;8.20;99.90;;;;;;5035160;28;20484;-57
2023/12/14 06:34:48;;;;;;;34.95;22.17;;;8.20;99.90;;;;;;5036234;28;20098;-57
2023/12/14 06:37:14;;;;;;;45.58;25.08;;;8.20;99.90;;;;;;5035940;28;20375;-57
2023/12/14 06:39:43;;;;;;;40.83;22.33;;;8.30;99.90;;;;;;5032931;28;20047;-57
2023/12/14 06:42:09;;;;;;;185.20;54.17;;;8.30;99.90;;;;;;5033192;28;20099;-57
2023/12/14 06:44:35;;;;;;;250.65;65.90;;;8.30;99.90;;;;;;5031878;28;20018;-58
2023/12/14 06:47:02;;;;;;;330.95;85.13;;;8.30;99.90;;;;;;5031041;28;20475;-57
2023/12/14 06:49:28;;;;;;;168.68;53.65;;;8.40;99.90;;;;;;5030933;28;20508;-58
2023/12/14 06:51:54;;;;;;;113.22;40.60;;;8.40;99.90;;;;;;5033518;28;20045;-58
2023/12/14 06:54:20;;;;;;;72.07;30.27;;;8.50;99.90;;;;;;5035713;28;20034;-57
2023/12/14 06:56:46;;;;;;;56.67;27.25;;;8.40;99.90;;;;;;5035139;28;20116;-58
2023/12/14 06:59:12;;;;;;;51.08;25.17;;;8.50;99.90;;;;;;5035637;28;20048;-58
2023/12/14 07:01:38;;;;;;;51.13;26.48;;;8.50;99.90;;;;;;5035474;28;20452;-57
2023/12/14 07:04:04;;;;;;;58.67;31.33;;;8.50;99.90;;;;;;5035403;28;20037;-57
2023/12/14 07:06:31;;;;;;;59.13;31.52;;;8.50;99.90;;;;;;5036028;28;20494;-57
2023/12/14 07:08:57;;;;;;;54.58;28.70;;;8.50;99.90;;;;;;5035565;28;20029;-57
2023/12/14 07:11:23;;;;;;;70.72;37.13;;;8.50;99.90;;;;;;5032493;28;20087;-58
2023/12/14 07:13:49;;;;;;;64.80;35.67;;;8.50;99.90;;;;;;5031963;28;20345;-57
2023/12/14 07:16:17;;;;;;;67.72;36.97;;;8.60;99.90;;;;;;5031583;28;20385;-58
2023/12/14 07:18:44;;;;;;;63.90;31.63;;;8.60;99.90;;;;;;5035155;28;20021;-58
2023/12/14 07:21:10;;;;;;;63.10;33.33;;;8.70;99.90;;;;;;5035436;28;20029;-58
2023/12/14 07:23:37;;;;;;;68.40;34.35;;;8.70;99.90;;;;;;5035520;28;20037;-57
2023/12/14 07:26:03;;;;;;;67.18;34.05;;;8.70;99.90;;;;;;5035260;28;20583;-57
2023/12/14 07:28:29;;;;;;;69.93;34.45;;;8.70;99.90;;;;;;5033458;28;20107;-58
2023/12/14 07:30:55;;;;;;;74.03;36.92;;;8.70;99.90;;;;;;5025744;28;20460;-57
2023/12/14 07:33:21;;;;;;;76.07;37.90;;;8.80;99.90;;;;;;5034030;28;20199;-58
2023/12/14 07:35:47;;;;;;;71.93;36.95;;;8.70;99.90;;;;;;5035373;28;20073;-58
2023/12/14 07:38:13;;;;;;;83.88;40.17;;;8.80;99.90;;;;;;5035300;28;20029;-57
2023/12/14 07:40:40;;;;;;;97.88;46.63;;;8.90;99.90;;;;;;5033089;28;20056;-58
2023/12/14 07:43:07;;;;;;;88.43;42.83;;;8.90;99.90;;;;;;5033012;28;20029;-58
2023/12/14 07:45:33;;;;;;;91.53;43.80;;;9.00;99.90;;;;;;5033611;28;20057;-59
2023/12/14 07:47:59;;;;;;;86.07;41.08;;;9.00;99.90;;;;;;5024779;28;20030;-59
2023/12/14 07:50:26;;;;;;;89.43;42.65;;;9.00;99.90;;;;;;5027940;28;20045;-56
2023/12/14 07:52:52;;;;;;;84.88;41.13;;;9.00;99.90;;;;;;5023499;28;20419;-56
2023/12/14 07:55:19;;;;;;;97.50;48.90;;;9.00;99.90;;;;;;5025294;28;20060;-56
2023/12/14 07:57:45;;;;;;;91.32;48.47;;;9.10;99.90;;;;;;5032540;28;20026;-56
2023/12/14 08:00:11;;;;;;;92.85;48.30;;;9.00;99.90;;;;;;5028119;28;20041;-56
2023/12/14 08:02:38;;;;;;;110.15;56.50;;;9.00;99.90;;;;;;5031076;28;20037;-56
2023/12/14 08:05:04;;;;;;;92.60;46.03;;;9.00;99.90;;;;;;5012062;28;20030;-56
2023/12/14 08:07:31;;;;;;;86.95;41.63;;;9.00;99.90;;;;;;5018628;28;20013;-56
2023/12/14 08:09:58;;;;;;;121.78;55.83;;;8.90;99.90;;;;;;5034508;28;20029;-57
2023/12/14 08:12:24;;;;;;;76.28;35.17;;;9.00;99.90;;;;;;5034541;28;20040;-56
2023/12/14 08:14:50;;;;;;;79.55;37.92;;;9.00;99.90;;;;;;5032616;28;20049;-56
2023/12/14 08:17:16;;;;;;;75.32;38.35;;;9.00;99.90;;;;;;5026431;28;20052;-57
2023/12/14 08:19:42;;;;;;;121.05;50.67;;;9.00;99.90;;;;;;5035353;28;20550;-57
2023/12/14 08:22:12;;;;;;;95.88;42.65;;;9.00;99.90;;;;;;5038958;28;20083;-57
2023/12/14 08:24:41;;;;;;;90.32;40.42;;;9.00;99.90;;;;;;5038287;28;20034;-56
2023/12/14 08:27:07;;;;;;;109.15;48.22;;;9.10;99.90;;;;;;5038322;28;20048;-54
2023/12/14 08:29:33;;;;;;;80.05;42.67;;;9.10;99.90;;;;;;5038460;28;20100;-54
2023/12/14 08:31:59;;;;;;;92.97;50.08;;;8.90;99.90;;;;;;5038257;28;20109;-54
2023/12/14 08:34:25;;;;;;;86.88;44.67;;;9.00;99.90;;;;;;5038029;28;20037;-54
2023/12/14 08:36:52;;;;;;;49.63;27.25;;;9.00;99.90;;;;;;5034603;28;20064;-54
2023/12/14 08:39:18;;;;;;;49.60;27.55;;;9.00;99.90;;;;;;5026783;28;20420;-54
2023/12/14 08:41:45;;;;;;;50.15;27.10;;;9.10;99.90;;;;;;5027752;28;20041;-54
2023/12/14 08:44:11;;;;;;;48.15;26.30;;;9.10;99.90;;;;;;5026818;28;20026;-55
2023/12/14 08:46:42;;;;;;;54.00;27.27;;;9.10;99.90;;;;;;5030364;28;20044;-55
2023/12/14 08:49:08;;;;;;;49.22;25.27;;;9.10;99.90;;;;;;5037819;28;20079;-55
2023/12/14 08:51:34;;;;;;;45.33;24.63;;;9.20;99.90;;;;;;5035528;28;20026;-54
2023/12/14 08:54:00;;;;;;;35.20;19.42;;;9.20;99.90;;;;;;5038225;28;20113;-54
2023/12/14 08:56:25;;;;;;;42.67;23.15;;;9.20;99.90;;;;;;5037802;28;20109;-54
2023/12/14 08:58:52;;;;;;;39.78;21.63;;;9.20;99.90;;;;;;5031168;28;20048;-54
2023/12/14 09:01:21;;;;;;;37.97;21.67;;;9.20;99.90;;;;;;5036790;28;20073;-54
2023/12/14 09:03:47;;;;;;;33.67;19.27;;;9.10;99.90;;;;;;5034293;28;20029;-54
2023/12/14 09:06:14;;;;;;;41.10;22.45;;;9.20;99.90;;;;;;5035742;28;20021;-54
2023/12/14 09:08:40;;;;;;;43.45;23.13;;;9.10;99.90;;;;;;5036715;28;20017;-54
2023/12/14 09:11:06;;;;;;;51.08;26.05;;;9.10;99.90;;;;;;5037290;28;20061;-54
2023/12/14 09:13:32;;;;;;;84.20;39.90;;;9.00;99.90;;;;;;5035323;28;20464;-54
2023/12/14 09:15:58;;;;;;;133.70;59.47;;;8.90;99.90;;;;;;5037449;28;20021;-54
2023/12/14 09:18:24;;;;;;;112.63;49.55;;;8.90;99.90;;;;;;5037209;28;20490;-54
2023/12/14 09:20:50;;;;;;;74.22;36.47;;;9.00;99.90;;;;;;5036037;28;20387;-54
2023/12/14 09:23:16;;;;;;;56.17;28.10;;;9.00;99.90;;;;;;5037633;28;20071;-55
2023/12/14 09:25:42;;;;;;;84.65;42.10;;;8.90;99.90;;;;;;5035626;28;20506;-55
2023/12/14 09:28:08;;;;;;;66.60;36.55;;;8.90;99.90;;;;;;5030798;28;20021;-55
2023/12/14 09:30:34;;;;;;;47.20;25.70;;;8.90;99.90;;;;;;5035463;28;20049;-55
2023/12/14 09:33:00;;;;;;;29.48;17.38;;;9.00;99.90;;;;;;5037141;28;20021;-54
2023/12/14 09:35:26;;;;;;;22.23;14.25;;;9.00;99.90;;;;;;5036953;28;20033;-55
2023/12/14 09:37:53;;;;;;;21.30;12.90;;;9.00;99.90;;;;;;5037183;28;20072;-55
2023/12/14 09:40:19;;;;;;;34.13;19.67;;;9.10;99.90;;;;;;5035228;28;20029;-55
2023/12/14 09:42:45;;;;;;;29.20;16.35;;;9.10;99.90;;;;;;5036358;28;20033;-54
2023/12/14 09:45:11;;;;;;;36.13;20.42;;;9.10;99.90;;;;;;5037061;28;20057;-55
2023/12/14 09:47:38;;;;;;;45.80;24.08;;;9.10;99.90;;;;;;5036140;28;20080;-55
2023/12/14 09:50:05;;;;;;;38.58;19.75;;;9.10;99.90;;;;;;5028267;28;20049;-55
2023/12/14 09:52:33;;;;;;;36.05;17.65;;;9.10;99.90;;;;;;4996586;28;20025;-55
2023/12/14 09:55:00;;;;;;;39.55;19.88;;;9.10;99.90;;;;;;5002659;28;20896;-55
2023/12/14 09:57:26;;;;;;;57.10;28.05;;;9.20;99.90;;;;;;4948171;28;20259;-55
2023/12/14 09:59:53;;;;;;;41.70;23.30;;;9.10;99.90;;;;;;5014368;28;20044;-55
2023/12/14 10:02:20;;;;;;;62.55;34.65;;;9.20;99.90;;;;;;5029699;28;20056;-55
2023/12/14 10:04:46;;;;;;;66.82;35.97;;;9.20;99.90;;;;;;5036060;28;20053;-55
2023/12/14 10:07:12;;;;;;;42.67;26.13;;;9.20;99.90;;;;;;5034823;28;20037;-55
2023/12/14 10:09:38;;;;;;;45.30;26.88;;;9.20;99.90;;;;;;5034636;28;20034;-55
2023/12/14 10:12:07;;;;;;;35.30;21.50;;;9.30;99.90;;;;;;5032365;28;20490;-55
2023/12/14 10:14:34;;;;;;;40.80;24.98;;;9.20;99.90;;;;;;5030786;28;20075;-55
2023/12/14 10:17:16;;;;;;;38.05;24.48;;;9.30;99.90;;;;;;5031946;28;20376;-55
2023/12/14 10:19:46;;;;;;;43.08;22.60;;;9.40;99.90;;;;;;5034768;28;20041;-55
2023/12/14 10:22:17;;;;;;;31.60;18.08;;;9.40;99.90;;;;;;5036630;28;20061;-55
2023/12/14 10:24:49;;;;;;;32.05;17.92;;;9.40;99.90;;;;;;5034243;28;20063;-55
2023/12/14 10:27:16;;;;;;;34.22;19.70;;;9.30;99.90;;;;;;5036737;28;20037;-55
2023/12/14 10:29:44;;;;;;;36.78;20.95;;;9.30;99.90;;;;;;5034737;28;20327;-55
2023/12/14 10:32:11;;;;;;;28.67;20.33;;;9.40;99.90;;;;;;5021664;28;20088;-55
2023/12/14 10:34:38;;;;;;;25.20;13.68;;;9.50;99.90;;;;;;5016325;28;20025;-55
2023/12/14 10:37:06;;;;;;;24.30;13.70;;;9.50;99.90;;;;;;5019444;28;20040;-55
2023/12/14 10:39:37;;;;;;;24.27;14.02;;;9.60;99.90;;;;;;5030616;28;20022;-55
2023/12/14 10:42:04;;;;;;;33.33;18.45;;;9.60;99.90;;;;;;5021319;28;20036;-55
2023/12/14 10:44:35;;;;;;;22.88;13.73;;;9.70;99.90;;;;;;5032219;28;20030;-55
2023/12/14 10:47:04;;;;;;;71.82;32.40;;;9.70;99.90;;;;;;5034728;28;20087;-55
2023/12/14 10:49:30;;;;;;;48.70;25.25;;;9.70;99.90;;;;;;5035999;28;20022;-55
2023/12/14 10:51:58;;;;;;;41.28;16.05;;;9.70;99.90;;;;;;5036129;28;20032;-55
2023/12/14 10:54:26;;;;;;;51.10;26.38;;;9.70;99.90;;;;;;5035704;28;20038;-55
2023/12/14 10:56:56;;;;;;;28.10;18.27;;;9.80;99.90;;;;;;5032189;28;20098;-56
2023/12/14 10:59:24;;;;;;;24.65;13.85;;;9.90;99.90;;;;;;5033946;28;20047;-55
2023/12/14 11:01:54;;;;;;;25.35;15.00;;;9.80;99.90;;;;;;5004053;28;20490;-55
2023/12/14 11:04:23;;;;;;;21.60;12.13;;;9.80;99.90;;;;;;5011732;28;20022;-55
2023/12/14 11:06:49;;;;;;;31.05;14.13;;;9.80;99.90;;;;;;5033909;28;20067;-55
2023/12/14 11:09:18;;;;;;;27.20;14.10;;;9.80;99.90;;;;;;5017569;28;20042;-55
2023/12/14 11:11:53;;;;;;;21.60;11.48;;;9.90;99.90;;;;;;5013990;28;20050;-55
2023/12/14 11:14:20;;;;;;;14.57;9.40;;;9.90;99.90;;;;;;5023601;28;20083;-55
2023/12/14 11:16:53;;;;;;;17.55;11.55;;;9.90;99.90;;;;;;5035305;28;20052;-55
2023/12/14 11:19:22;;;;;;;23.67;12.75;;;9.80;99.90;;;;;;5031959;28;20506;-55
2023/12/14 11:21:59;;;;;;;27.27;11.48;;;9.70;99.90;;;;;;5033104;28;20025;-55
2023/12/14 11:24:26;;;;;;;17.33;8.73;;;9.80;99.90;;;;;;5033957;28;20108;-55
2023/12/14 11:26:54;;;;;;;18.52;9.48;;;9.80;99.90;;;;;;5035124;28;20037;-55
2023/12/14 11:29:21;;;;;;;16.20;8.20;;;9.70;99.90;;;;;;5034973;28;20486;-55
2023/12/14 11:31:48;;;;;;;14.60;7.35;;;9.60;99.90;;;;;;5033673;28;20116;-55
2023/12/14 11:34:17;;;;;;;16.27;9.98;;;9.60;99.90;;;;;;5033797;28;20037;-55
2023/12/14 11:36:43;;;;;;;11.73;8.10;;;9.60;99.90;;;;;;5035058;28;20087;-55
2023/12/14 11:39:12;;;;;;;16.77;8.57;;;9.50;99.90;;;;;;5034714;28;20116;-55
2023/12/14 11:41:38;;;;;;;20.33;11.45;;;9.60;99.90;;;;;;5032560;28;20033;-55
2023/12/14 11:44:05;;;;;;;17.05;10.35;;;9.40;99.90;;;;;;5034159;28;20036;-55
2023/12/14 11:46:31;;;;;;;11.32;7.80;;;9.50;99.90;;;;;;5032894;28;20095;-55
2023/12/14 11:48:58;;;;;;;18.90;9.35;;;9.40;99.90;;;;;;5032520;28;20033;-55
2023/12/14 11:51:27;;;;;;;16.85;9.90;;;9.40;99.90;;;;;;5033398;28;20502;-55
2023/12/14 11:53:52;;;;;;;22.73;12.15;;;9.40;99.90;;;;;;5034996;28;20049;-56
2023/12/14 11:56:19;;;;;;;24.02;11.05;;;9.40;99.90;;;;;;5036643;28;20372;-55
2023/12/14 11:58:45;;;;;;;24.10;11.73;;;9.30;99.90;;;;;;5038167;28;20456;-55
2023/12/14 12:01:16;;;;;;;32.97;11.82;;;9.30;99.90;;;;;;5036791;28;20029;-55
2023/12/14 12:03:46;;;;;;;19.48;10.98;;;9.30;99.90;;;;;;5035004;28;20467;-55
2023/12/14 12:06:25;;;;;;;25.50;12.57;;;9.30;99.90;;;;;;5033229;28;20030;-55
2023/12/14 12:08:52;;;;;;;27.17;15.13;;;9.30;99.90;;;;;;5032538;28;20112;-55
2023/12/14 12:11:19;;;;;;;21.70;10.82;;;9.30;99.90;;;;;;5038126;28;20431;-56
2023/12/14 12:13:56;;;;;;;22.55;12.90;;;9.30;99.90;;;;;;5035541;28;20025;-56
2023/12/14 12:16:23;;;;;;;28.73;13.38;;;9.30;99.90;;;;;;5038046;28;20492;-55
2023/12/14 12:18:50;;;;;;;25.27;14.02;;;9.20;99.90;;;;;;5038586;28;20014;-55
2023/12/14 12:21:16;;;;;;;25.15;11.80;;;9.20;99.90;;;;;;5037937;28;20014;-55
2023/12/14 12:23:42;;;;;;;16.98;9.55;;;9.20;99.90;;;;;;5037345;28;20025;-55
2023/12/14 12:26:09;;;;;;;33.33;15.45;;;9.30;99.90;;;;;;5035084;28;20037;-55
2023/12/14 12:28:35;;;;;;;33.65;16.42;;;9.40;99.90;;;;;;5038244;28;20103;-55
2023/12/14 12:31:01;;;;;;;34.85;17.45;;;9.40;99.90;;;;;;5037789;28;20017;-55
2023/12/14 12:33:27;;;;;;;22.90;13.43;;;9.50;99.90;;;;;;5037881;28;20021;-55